createdAt,value
2022-07-29T00:02:01.169Z,17.17
2022-07-29T00:04:29.020Z,17.38
2022-07-29T00:07:00.491Z,17.30
2022-07-29T00:10:00.298Z,16.61
2022-07-29T00:12:27.499Z,17.39
2022-07-29T00:14:56.610Z,17.37
2022-07-29T00:17:25.032Z,17.27
2022-07-29T00:19:52.956Z,17.04
2022-07-29T00:22:23.310Z,16.90
2022-07-29T00:24:50.943Z,17.10
2022-07-29T00:27:19.194Z,17.28
2022-07-29T00:29:49.893Z,17.33
2022-07-29T00:32:17.735Z,17.29
2022-07-29T00:35:04.411Z,17.08
2022-07-29T00:37:31.893Z,17.22
2022-07-29T00:39:59.629Z,17.12
2022-07-29T00:42:29.777Z,16.98
2022-07-29T00:44:58.542Z,16.90
2022-07-29T00:47:27.125Z,16.58
2022-07-29T00:49:55.410Z,16.61
2022-07-29T00:52:24.777Z,16.68
2022-07-29T00:54:56.677Z,16.54
2022-07-29T00:57:26.161Z,16.55
2022-07-29T00:59:56.282Z,16.60
2022-07-29T01:02:25.060Z,16.54
2022-07-29T01:05:00.581Z,16.42
2022-07-29T01:07:28.778Z,16.17
2022-07-29T01:10:02.732Z,16.17
2022-07-29T01:12:35.243Z,16.24
2022-07-29T01:15:04.325Z,16.27
2022-07-29T01:17:40.358Z,16.24
2022-07-29T01:20:38.714Z,16.15
2022-07-29T01:23:38.066Z,16.10
2022-07-29T01:26:42.210Z,15.96
2022-07-29T01:29:38.612Z,15.77
2022-07-29T01:32:28.514Z,15.95
2022-07-29T01:35:18.168Z,15.95
2022-07-29T01:38:06.572Z,15.97
2022-07-29T01:41:20.149Z,15.89
2022-07-29T01:44:03.885Z,15.95
2022-07-29T01:46:38.188Z,15.93
2022-07-29T01:49:36.856Z,15.90
2022-07-29T01:52:12.711Z,15.63
2022-07-29T01:54:58.375Z,15.82
2022-07-29T01:57:28.935Z,15.70
2022-07-29T01:59:58.331Z,15.71
2022-07-29T02:02:27.417Z,15.68
2022-07-29T02:04:55.657Z,15.77
2022-07-29T02:07:26.297Z,15.79
2022-07-29T02:09:54.878Z,15.85
2022-07-29T02:12:25.172Z,15.50
2022-07-29T02:14:54.279Z,15.77
2022-07-29T02:17:38.828Z,15.74
2022-07-29T02:20:10.145Z,15.75
2022-07-29T02:22:40.366Z,15.62
2022-07-29T02:25:13.863Z,15.74
2022-07-29T02:27:42.782Z,15.80
2022-07-29T02:30:11.852Z,15.78
2022-07-29T02:32:41.351Z,15.80
2022-07-29T02:35:11.117Z,15.79
2022-07-29T02:37:39.719Z,15.96
2022-07-29T02:40:12.598Z,15.75
2022-07-29T02:42:43.571Z,15.87
2022-07-29T02:45:11.986Z,15.60
2022-07-29T02:47:50.843Z,15.89
2022-07-29T02:50:50.584Z,15.83
2022-07-29T02:53:21.285Z,15.82
2022-07-29T02:55:56.661Z,15.91
2022-07-29T02:58:32.803Z,16.00
2022-07-29T03:01:03.804Z,15.98
2022-07-29T03:03:40.974Z,15.95
2022-07-29T03:06:28.237Z,15.86
2022-07-29T03:09:05.724Z,16.02
2022-07-29T03:11:42.267Z,15.84
2022-07-29T03:14:24.446Z,15.92
2022-07-29T03:16:56.378Z,15.89
2022-07-29T03:19:23.490Z,15.74
2022-07-29T03:21:50.688Z,15.77
2022-07-29T03:24:34.554Z,15.89
2022-07-29T03:27:02.645Z,15.83
2022-07-29T03:29:33.177Z,15.70
2022-07-29T03:32:03.699Z,15.90
2022-07-29T03:34:34.988Z,15.85
2022-07-29T03:37:02.174Z,16.02
2022-07-29T03:39:34.507Z,15.69
2022-07-29T03:42:10.299Z,16.11
2022-07-29T03:44:40.846Z,16.08
2022-07-29T03:47:15.614Z,16.16
2022-07-29T03:49:49.682Z,16.31
2022-07-29T03:52:21.438Z,16.31
2022-07-29T03:54:50.230Z,16.38
2022-07-29T03:57:18.311Z,16.28
2022-07-29T03:59:46.427Z,16.49
2022-07-29T04:02:14.944Z,16.37
2022-07-29T04:04:45.056Z,16.35
2022-07-29T04:07:14.535Z,16.68
2022-07-29T04:09:41.893Z,16.58
2022-07-29T04:12:09.562Z,16.62
2022-07-29T04:14:37.505Z,16.80
2022-07-29T04:17:05.673Z,16.89
2022-07-29T04:19:33.476Z,16.86
2022-07-29T04:22:01.610Z,17.04
2022-07-29T04:24:29.018Z,17.02
2022-07-29T04:26:56.504Z,16.91
2022-07-29T04:29:27.908Z,17.18
2022-07-29T04:31:58.343Z,17.49
2022-07-29T04:34:28.202Z,17.75
2022-07-29T04:36:58.730Z,18.31
2022-07-29T04:39:32.027Z,18.79
2022-07-29T04:41:59.518Z,18.88
2022-07-29T04:44:29.050Z,19.22
2022-07-29T04:46:59.981Z,19.16
2022-07-29T04:49:27.585Z,19.38
2022-07-29T04:51:55.329Z,19.63
2022-07-29T04:54:22.602Z,19.96
2022-07-29T04:56:49.818Z,20.30
2022-07-29T04:59:16.856Z,20.61
2022-07-29T05:01:44.091Z,20.49
2022-07-29T05:04:11.278Z,20.67
2022-07-29T05:06:38.326Z,20.84
2022-07-29T05:09:05.481Z,21.38
2022-07-29T05:11:37.388Z,21.68
2022-07-29T05:14:04.980Z,21.76
2022-07-29T05:16:31.966Z,22.43
2022-07-29T05:18:59.195Z,22.52
2022-07-29T05:21:26.642Z,22.15
2022-07-29T05:23:54.101Z,22.11
2022-07-29T05:26:21.970Z,22.59
2022-07-29T05:28:55.123Z,22.88
2022-07-29T05:31:22.424Z,22.80
2022-07-29T05:33:52.677Z,23.02
2022-07-29T05:36:22.406Z,22.24
2022-07-29T05:38:49.650Z,22.24
2022-07-29T05:41:16.814Z,21.72
2022-07-29T05:43:45.115Z,22.38
2022-07-29T05:46:15.296Z,21.72
2022-07-29T05:48:43.157Z,22.35
2022-07-29T05:51:11.647Z,22.55
2022-07-29T05:53:39.062Z,23.06
2022-07-29T05:56:06.919Z,23.15
2022-07-29T05:58:36.381Z,23.66
2022-07-29T06:01:03.958Z,23.96
2022-07-29T06:03:31.453Z,24.29
2022-07-29T06:05:58.937Z,24.57
2022-07-29T06:08:26.143Z,24.47
2022-07-29T06:10:53.341Z,24.47
2022-07-29T06:13:20.557Z,24.44
2022-07-29T06:15:47.749Z,24.31
2022-07-29T06:18:15.072Z,24.63
2022-07-29T06:20:42.595Z,25.29
2022-07-29T06:23:12.459Z,25.60
2022-07-29T06:25:42.076Z,25.91
2022-07-29T06:28:09.300Z,25.75
2022-07-29T06:30:36.678Z,25.78
2022-07-29T06:33:04.434Z,25.71
2022-07-29T06:35:41.863Z,25.64
2022-07-29T06:38:33.850Z,25.80
2022-07-29T06:41:01.084Z,24.84
2022-07-29T06:43:52.079Z,24.66
2022-07-29T06:46:22.662Z,24.47
2022-07-29T06:48:50.884Z,25.01
2022-07-29T06:51:23.388Z,24.92
2022-07-29T06:54:00.305Z,25.18
2022-07-29T06:56:31.685Z,25.80
2022-07-29T06:59:01.553Z,25.95
2022-07-29T07:01:32.115Z,25.64
2022-07-29T07:03:59.236Z,26.27
2022-07-29T07:06:26.338Z,26.69
2022-07-29T07:08:53.621Z,27.59
2022-07-29T07:11:21.008Z,27.92
2022-07-29T07:13:48.298Z,27.93
2022-07-29T07:16:15.571Z,28.28
2022-07-29T07:18:46.381Z,28.43
2022-07-29T07:21:19.277Z,28.58
2022-07-29T07:23:50.096Z,28.59
2022-07-29T07:26:17.330Z,28.46
2022-07-29T07:28:44.487Z,28.68
2022-07-29T07:31:12.375Z,28.63
2022-07-29T07:33:39.612Z,28.70
2022-07-29T07:36:06.738Z,28.74
2022-07-29T07:38:33.915Z,28.45
2022-07-29T07:41:02.073Z,28.98
2022-07-29T07:43:29.346Z,29.00
2022-07-29T07:45:56.527Z,28.60
2022-07-29T07:48:23.819Z,27.42
2022-07-29T07:50:51.750Z,27.80
2022-07-29T07:53:18.952Z,28.09
2022-07-29T07:58:34.019Z,28.63
2022-07-29T08:01:01.248Z,29.23
2022-07-29T08:03:28.419Z,29.87
2022-07-29T08:05:55.578Z,30.68
2022-07-29T08:08:22.902Z,30.80
2022-07-29T08:11:00.607Z,30.70
2022-07-29T08:13:31.497Z,29.98
2022-07-29T08:16:01.198Z,29.33
2022-07-29T08:18:31.519Z,29.59
2022-07-29T08:20:59.443Z,28.99
2022-07-29T08:23:32.938Z,29.02
2022-07-29T08:26:14.891Z,29.80
2022-07-29T08:28:46.910Z,29.79
2022-07-29T08:31:15.284Z,29.60
2022-07-29T08:33:42.890Z,29.00
2022-07-29T08:36:10.839Z,27.75
2022-07-29T08:38:37.980Z,27.10
2022-07-29T08:41:05.018Z,26.77
2022-07-29T08:43:33.210Z,26.09
2022-07-29T08:46:01.485Z,25.88
2022-07-29T08:48:28.668Z,26.31
2022-07-29T08:50:57.363Z,26.73
2022-07-29T08:53:27.831Z,27.66
2022-07-29T08:55:55.957Z,28.51
2022-07-29T08:58:24.976Z,28.28
2022-07-29T09:00:57.869Z,28.02
2022-07-29T09:03:27.889Z,27.93
2022-07-29T09:05:55.531Z,28.47
2022-07-29T09:08:24.337Z,29.44
2022-07-29T09:10:52.508Z,29.36
2022-07-29T09:13:20.276Z,29.11
2022-07-29T09:15:47.360Z,29.65
2022-07-29T09:18:34.227Z,30.02
2022-07-29T09:21:20.079Z,30.28
2022-07-29T09:24:11.958Z,30.63
2022-07-29T09:26:42.307Z,30.86
2022-07-29T09:29:18.623Z,30.91
2022-07-29T09:31:54.028Z,31.13
2022-07-29T09:34:29.280Z,30.90
2022-07-29T09:36:57.763Z,30.96
2022-07-29T09:39:34.635Z,30.18
2022-07-29T09:42:06.930Z,29.07
2022-07-29T09:44:51.389Z,28.71
2022-07-29T09:47:20.079Z,28.44
2022-07-29T09:50:01.110Z,28.63
2022-07-29T09:52:31.573Z,28.22
2022-07-29T09:55:09.314Z,27.44
2022-07-29T09:57:38.100Z,27.43
2022-07-29T10:00:09.701Z,27.28
2022-07-29T10:02:41.901Z,27.25
2022-07-29T10:05:20.160Z,27.37
2022-07-29T10:08:08.665Z,28.19
2022-07-29T10:10:41.075Z,29.07
2022-07-29T10:13:16.388Z,29.40
2022-07-29T10:15:46.939Z,29.54
2022-07-29T10:18:15.681Z,30.16
2022-07-29T10:20:43.126Z,30.49
2022-07-29T10:23:11.048Z,30.14
2022-07-29T10:25:38.178Z,30.13
2022-07-29T10:28:06.982Z,30.61
2022-07-29T10:30:34.668Z,31.00
2022-07-29T10:33:12.873Z,31.36
2022-07-29T10:36:05.531Z,31.51
2022-07-29T10:38:48.521Z,31.43
2022-07-29T10:41:36.283Z,31.97
2022-07-29T10:44:19.380Z,32.62
2022-07-29T10:46:50.592Z,32.66
2022-07-29T10:49:18.915Z,33.27
2022-07-29T10:52:00.004Z,33.81
2022-07-29T10:54:52.700Z,32.02
2022-07-29T10:57:53.207Z,31.56
2022-07-29T11:00:17.299Z,32.39
2022-07-29T11:02:50.152Z,32.13
2022-07-29T11:05:20.408Z,31.84
2022-07-29T11:08:21.320Z,30.83
2022-07-29T11:11:18.504Z,30.71
2022-07-29T11:13:48.830Z,29.33
2022-07-29T11:16:17.050Z,29.54
2022-07-29T11:19:15.897Z,30.60
2022-07-29T11:21:58.355Z,32.04
2022-07-29T11:24:34.768Z,32.67
2022-07-29T11:27:21.657Z,32.66
2022-07-29T11:29:52.168Z,32.25
2022-07-29T11:32:22.707Z,33.36
2022-07-29T11:35:17.269Z,33.64
2022-07-29T11:37:52.821Z,34.32
2022-07-29T11:40:24.911Z,34.77
2022-07-29T11:42:52.788Z,34.99
2022-07-29T11:45:42.697Z,34.42
2022-07-29T11:48:29.167Z,34.93
2022-07-29T11:50:59.642Z,34.35
2022-07-29T11:53:29.246Z,32.78
2022-07-29T11:56:00.906Z,31.95
2022-07-29T11:58:29.566Z,31.12
2022-07-29T12:00:57.870Z,29.74
2022-07-29T12:03:35.249Z,28.69
2022-07-29T12:06:17.507Z,27.92
2022-07-29T12:08:45.988Z,28.86
2022-07-29T12:11:23.453Z,30.89
2022-07-29T12:13:52.508Z,30.63
2022-07-29T12:16:29.160Z,29.25
2022-07-29T12:19:05.111Z,27.91
2022-07-29T12:21:52.310Z,27.03
2022-07-29T12:24:27.005Z,26.79
2022-07-29T12:26:55.679Z,26.68
2022-07-29T12:29:34.485Z,26.18
2022-07-29T12:32:05.549Z,26.09
2022-07-29T12:34:33.445Z,26.15
2022-07-29T12:37:02.164Z,26.05
2022-07-29T12:39:29.679Z,26.22
2022-07-29T12:42:04.371Z,26.25
2022-07-29T12:45:05.103Z,26.21
2022-07-29T12:47:32.831Z,26.08
2022-07-29T12:50:11.814Z,25.89
2022-07-29T12:52:41.524Z,25.65
2022-07-29T12:55:09.192Z,25.40
2022-07-29T12:57:51.705Z,25.60
2022-07-29T13:00:26.288Z,25.93
2022-07-29T13:03:01.000Z,25.62
2022-07-29T13:05:49.146Z,26.37
2022-07-29T13:08:22.108Z,27.39
2022-07-29T13:10:49.895Z,27.40
2022-07-29T13:13:17.154Z,27.25
2022-07-29T13:15:48.128Z,27.23
2022-07-29T13:18:32.235Z,27.21
2022-07-29T13:21:12.747Z,27.15
2022-07-29T13:23:40.667Z,27.20
2022-07-29T13:26:12.677Z,28.78
2022-07-29T13:28:44.252Z,30.49
2022-07-29T13:31:14.345Z,31.42
2022-07-29T13:33:41.708Z,31.98
2022-07-29T13:36:09.146Z,32.69
2022-07-29T13:38:36.139Z,33.69
2022-07-29T13:41:03.293Z,34.28
2022-07-29T13:43:30.717Z,33.44
2022-07-29T13:45:57.983Z,32.08
2022-07-29T13:48:25.333Z,30.25
2022-07-29T13:50:52.693Z,29.41
2022-07-29T13:53:20.268Z,28.44
2022-07-29T13:55:55.537Z,27.77
2022-07-29T13:58:24.766Z,27.92
2022-07-29T14:00:52.400Z,28.09
2022-07-29T14:03:19.519Z,27.95
2022-07-29T14:05:46.607Z,27.54
2022-07-29T14:08:13.691Z,27.24
2022-07-29T14:10:41.086Z,26.88
2022-07-29T14:13:24.250Z,26.61
2022-07-29T14:15:54.391Z,26.25
2022-07-29T14:18:21.898Z,26.22
2022-07-29T14:20:49.306Z,25.89
2022-07-29T14:23:16.541Z,25.89
2022-07-29T14:25:43.859Z,25.62
2022-07-29T14:28:11.648Z,25.54
2022-07-29T14:30:41.799Z,25.34
2022-07-29T14:33:09.251Z,25.25
2022-07-29T14:35:36.358Z,25.14
2022-07-29T14:38:03.675Z,25.14
2022-07-29T14:40:30.772Z,24.88
2022-07-29T14:42:57.878Z,25.01
2022-07-29T14:45:25.359Z,25.00
2022-07-29T14:47:56.449Z,25.05
2022-07-29T14:50:31.462Z,25.01
2022-07-29T14:53:02.551Z,24.96
2022-07-29T14:55:30.012Z,24.95
2022-07-29T14:58:06.011Z,24.86
2022-07-29T15:00:35.118Z,24.55
2022-07-29T15:03:03.033Z,24.66
2022-07-29T15:05:32.277Z,24.59
2022-07-29T15:08:00.540Z,24.63
2022-07-29T15:10:28.317Z,24.48
2022-07-29T15:12:57.087Z,24.35
2022-07-29T15:15:24.478Z,24.10
2022-07-29T15:17:51.766Z,23.78
2022-07-29T15:20:19.005Z,23.56
2022-07-29T15:22:46.086Z,23.45
2022-07-29T15:25:13.457Z,23.47
2022-07-29T15:27:41.627Z,23.56
2022-07-29T15:30:32.898Z,23.53
2022-07-29T15:33:04.696Z,23.69
2022-07-29T15:35:32.004Z,23.78
2022-07-29T15:37:59.328Z,23.78
2022-07-29T15:40:26.439Z,23.87
2022-07-29T15:42:53.551Z,23.87
2022-07-29T15:45:20.756Z,23.81
2022-07-29T15:47:47.860Z,23.54
2022-07-29T15:50:16.911Z,23.11
2022-07-29T15:52:44.380Z,22.79
2022-07-29T15:55:11.851Z,22.63
2022-07-29T15:57:40.991Z,22.68
2022-07-29T16:00:09.047Z,22.59
2022-07-29T16:02:36.451Z,22.52
2022-07-29T16:05:04.104Z,22.61
2022-07-29T16:07:37.846Z,22.69
2022-07-29T16:10:05.466Z,22.54
2022-07-29T16:12:32.486Z,22.66
2022-07-29T16:14:59.679Z,22.61
2022-07-29T16:17:27.774Z,22.45
2022-07-29T16:19:54.837Z,22.20
2022-07-29T16:22:21.920Z,22.48
2022-07-29T16:24:48.895Z,22.62
2022-07-29T16:27:16.075Z,22.59
2022-07-29T16:29:43.875Z,22.51
2022-07-29T16:32:11.164Z,22.46
2022-07-29T16:34:38.338Z,22.55
2022-07-29T16:37:05.873Z,22.44
2022-07-29T16:39:33.085Z,22.39
2022-07-29T16:42:02.248Z,22.22
2022-07-29T16:44:30.121Z,22.27
2022-07-29T16:46:58.758Z,22.19
2022-07-29T16:49:27.512Z,22.20
2022-07-29T16:51:55.019Z,22.27
2022-07-29T16:54:22.230Z,22.22
2022-07-29T16:56:49.410Z,22.23
2022-07-29T16:59:16.518Z,22.16
2022-07-29T17:01:43.728Z,22.15
2022-07-29T17:04:12.147Z,22.20
2022-07-29T17:06:40.872Z,22.19
2022-07-29T17:09:09.644Z,22.10
2022-07-29T17:11:52.882Z,21.91
2022-07-29T17:14:27.072Z,21.90
2022-07-29T17:17:01.000Z,21.87
2022-07-29T17:19:32.193Z,21.83
2022-07-29T17:22:08.436Z,21.84
2022-07-29T17:24:38.333Z,21.68
2022-07-29T17:27:06.277Z,21.74
2022-07-29T17:29:34.961Z,21.48
2022-07-29T17:32:02.114Z,21.62
2022-07-29T17:34:29.165Z,21.55
2022-07-29T17:36:56.815Z,21.46
2022-07-29T17:39:24.261Z,21.39
2022-07-29T17:41:51.400Z,21.35
2022-07-29T17:44:28.691Z,21.12
2022-07-29T17:46:56.397Z,20.55
2022-07-29T17:49:23.897Z,21.07
2022-07-29T17:51:51.012Z,21.03
2022-07-29T17:54:18.018Z,20.93
2022-07-29T17:56:45.232Z,21.00
2022-07-29T17:59:12.274Z,20.98
2022-07-29T18:01:41.557Z,20.93
2022-07-29T18:04:09.348Z,20.84
2022-07-29T18:06:36.421Z,20.64
2022-07-29T18:09:04.742Z,20.88
2022-07-29T18:11:32.656Z,20.77
2022-07-29T18:13:59.625Z,20.56
2022-07-29T18:16:29.820Z,20.68
2022-07-29T18:18:57.096Z,20.49
2022-07-29T18:21:39.325Z,20.72
2022-07-29T18:24:11.337Z,20.60
2022-07-29T18:26:39.339Z,20.60
2022-07-29T18:29:06.785Z,20.45
2022-07-29T18:31:39.135Z,20.33
2022-07-29T18:34:07.497Z,20.43
2022-07-29T18:36:35.029Z,20.31
2022-07-29T18:39:02.434Z,20.34
2022-07-29T18:41:30.112Z,20.18
2022-07-29T18:43:58.020Z,20.09
2022-07-29T18:46:26.273Z,20.18
2022-07-29T18:48:54.224Z,19.95
2022-07-29T18:51:25.209Z,20.12
2022-07-29T18:53:57.998Z,20.05
2022-07-29T18:56:29.116Z,19.95
2022-07-29T18:59:07.023Z,19.97
2022-07-29T19:01:35.360Z,19.93
2022-07-29T19:04:03.221Z,19.90
2022-07-29T19:06:31.817Z,19.82
2022-07-29T19:09:00.540Z,19.71
2022-07-29T19:11:31.255Z,19.61
2022-07-29T19:13:59.221Z,19.70
2022-07-29T19:16:29.318Z,19.60
2022-07-29T19:19:01.746Z,19.52
2022-07-29T19:21:28.926Z,19.42
2022-07-29T19:24:01.861Z,19.20
2022-07-29T19:26:46.838Z,19.30
2022-07-29T19:29:15.187Z,19.05
2022-07-29T19:31:45.259Z,19.18
2022-07-29T19:34:12.629Z,19.15
2022-07-29T19:36:39.793Z,19.09
2022-07-29T19:39:06.957Z,18.84
2022-07-29T19:41:34.023Z,18.78
2022-07-29T19:44:01.145Z,18.75
2022-07-29T19:46:29.170Z,18.95
2022-07-29T19:48:56.714Z,18.95
2022-07-29T19:51:24.320Z,18.91
2022-07-29T19:53:51.631Z,18.84
2022-07-29T19:56:19.012Z,18.65
2022-07-29T19:58:46.567Z,18.78
2022-07-29T20:01:15.077Z,18.74
2022-07-29T20:03:42.341Z,18.70
2022-07-29T20:06:09.466Z,18.59
2022-07-29T20:08:37.183Z,18.64
2022-07-29T20:11:04.501Z,18.58
2022-07-29T20:13:33.241Z,18.62
2022-07-29T20:16:02.131Z,18.63
2022-07-29T20:18:29.420Z,18.50
2022-07-29T20:20:57.734Z,18.39
2022-07-29T20:23:25.024Z,18.33
2022-07-29T20:25:52.490Z,18.58
2022-07-29T20:28:28.464Z,18.48
2022-07-29T20:30:56.381Z,18.49
2022-07-29T20:33:23.473Z,18.34
2022-07-29T20:35:50.558Z,18.33
2022-07-29T20:38:18.435Z,18.34
2022-07-29T20:40:46.080Z,18.29
2022-07-29T20:43:14.977Z,18.27
2022-07-29T20:45:42.472Z,18.23
2022-07-29T20:48:14.107Z,18.27
2022-07-29T20:53:22.125Z,18.29
2022-07-29T20:55:49.320Z,18.21
2022-07-29T20:58:16.371Z,18.13
2022-07-29T21:00:43.589Z,18.04
2022-07-29T21:03:10.630Z,17.96
2022-07-29T21:05:38.328Z,17.86
2022-07-29T21:08:05.695Z,17.63
2022-07-29T21:10:32.783Z,17.61
2022-07-29T21:12:59.867Z,17.44
2022-07-29T21:18:57.829Z,17.37
2022-07-29T21:22:01.989Z,16.82
2022-07-29T21:24:36.254Z,17.02
2022-07-29T21:27:29.238Z,17.32
2022-07-29T21:29:56.276Z,17.72
2022-07-29T21:32:27.420Z,17.72
2022-07-29T21:34:59.172Z,17.69
2022-07-29T21:37:27.260Z,17.73
2022-07-29T21:39:54.638Z,17.53
2022-07-29T21:42:21.710Z,17.65
2022-07-29T21:44:50.334Z,17.61
2022-07-29T21:47:18.276Z,17.67
2022-07-29T21:49:46.728Z,17.35
2022-07-29T21:52:16.969Z,17.52
2022-07-29T21:54:45.486Z,17.65
2022-07-29T21:57:12.580Z,17.59
2022-07-29T21:59:43.269Z,17.37
2022-07-29T22:02:11.132Z,17.51
2022-07-29T22:04:39.351Z,17.34
2022-07-29T22:07:07.467Z,17.32
2022-07-29T22:09:36.713Z,17.43
2022-07-29T22:12:04.197Z,17.32
2022-07-29T22:14:31.283Z,17.35
2022-07-29T22:16:58.847Z,17.31
2022-07-29T22:19:27.334Z,17.30
2022-07-29T22:21:54.851Z,17.29
2022-07-29T22:24:21.942Z,17.09
2022-07-29T22:26:49.057Z,17.19
2022-07-29T22:29:17.857Z,17.06
2022-07-29T22:31:45.351Z,17.14
2022-07-29T22:34:13.500Z,17.01
2022-07-29T22:36:41.498Z,16.93
2022-07-29T22:39:08.579Z,17.04
2022-07-29T22:41:35.727Z,16.89
2022-07-29T22:44:02.965Z,17.01
2022-07-29T22:46:30.521Z,16.82
2022-07-29T22:48:58.507Z,16.63
2022-07-29T22:51:26.107Z,16.76
2022-07-29T22:53:53.535Z,16.82
2022-07-29T22:56:21.291Z,16.59
2022-07-29T22:58:49.180Z,16.70
2022-07-29T23:01:37.216Z,16.47
2022-07-29T23:04:05.633Z,16.48
2022-07-29T23:06:33.098Z,16.57
2022-07-29T23:09:00.140Z,16.29
2022-07-29T23:11:27.206Z,16.41
2022-07-29T23:13:54.335Z,16.17
2022-07-29T23:16:26.379Z,16.31
2022-07-29T23:18:55.013Z,16.35
2022-07-29T23:21:22.119Z,16.02
2022-07-29T23:23:49.373Z,16.14
2022-07-29T23:26:17.012Z,16.08
2022-07-29T23:28:45.102Z,15.96
2022-07-29T23:31:13.636Z,15.86
2022-07-29T23:33:43.669Z,15.99
2022-07-29T23:36:10.840Z,15.82
2022-07-29T23:38:41.170Z,15.89
2022-07-29T23:41:09.907Z,15.78
2022-07-29T23:43:37.942Z,15.82
2022-07-29T23:46:05.325Z,15.75
2022-07-29T23:48:33.879Z,15.83
2022-07-29T23:51:01.284Z,15.87
2022-07-29T23:53:29.168Z,15.98
2022-07-29T23:55:56.767Z,15.88
2022-07-29T23:58:24.365Z,15.82
